sensor_id;sensor_type;location;lat;lon;timestamp;P1;durP1;ratioP1;P2;durP2;ratioP2
3867;SDS011;1949;48.152;11.528;2023-08-20T00:01:26;6.33;;;3.50;;
3867;SDS011;1949;48.152;11.528;2023-08-20T00:03:53;14.00;;;3.80;;
3867;SDS011;1949;48.152;11.528;2023-08-20T00:06:20;6.80;;;3.40;;
3867;SDS011;1949;48.152;11.528;2023-08-20T00:08:46;8.20;;;3.37;;
3867;SDS011;1949;48.152;11.528;2023-08-20T00:11:15;7.07;;;4.57;;
3867;SDS011;1949;48.152;11.528;2023-08-20T00:16:10;7.00;;;3.70;;
3867;SDS011;1949;48.152;11.528;2023-08-20T00:18:38;6.73;;;3.40;;
3867;SDS011;1949;48.152;11.528;2023-08-20T00:21:07;12.90;;;4.30;;
3867;SDS011;1949;48.152;11.528;2023-08-20T00:23:35;5.30;;;3.40;;
3867;SDS011;1949;48.152;11.528;2023-08-20T00:26:01;8.27;;;3.60;;
3867;SDS011;1949;48.152;11.528;2023-08-20T00:28:27;3.77;;;3.30;;
3867;SDS011;1949;48.152;11.528;2023-08-20T00:30:53;4.90;;;3.43;;
3867;SDS011;1949;48.152;11.528;2023-08-20T00:33:25;5.33;;;3.40;;
3867;SDS011;1949;48.152;11.528;2023-08-20T00:35:59;8.93;;;4.00;;
3867;SDS011;1949;48.152;11.528;2023-08-20T00:38:24;5.23;;;2.80;;
3867;SDS011;1949;48.152;11.528;2023-08-20T00:40:52;4.83;;;3.73;;
3867;SDS011;1949;48.152;11.528;2023-08-20T00:43:19;8.10;;;3.83;;
3867;SDS011;1949;48.152;11.528;2023-08-20T00:48:15;7.17;;;4.37;;
3867;SDS011;1949;48.152;11.528;2023-08-20T00:50:43;9.30;;;3.70;;
3867;SDS011;1949;48.152;11.528;2023-08-20T00:53:12;6.13;;;3.47;;
3867;SDS011;1949;48.152;11.528;2023-08-20T00:55:41;6.27;;;3.87;;
3867;SDS011;1949;48.152;11.528;2023-08-20T00:58:18;8.50;;;3.50;;
3867;SDS011;1949;48.152;11.528;2023-08-20T01:00:46;5.40;;;3.67;;
3867;SDS011;1949;48.152;11.528;2023-08-20T01:03:12;4.70;;;3.40;;
3867;SDS011;1949;48.152;11.528;2023-08-20T01:05:42;9.77;;;3.60;;
3867;SDS011;1949;48.152;11.528;2023-08-20T01:10:59;11.83;;;3.53;;
3867;SDS011;1949;48.152;11.528;2023-08-20T01:13:35;10.13;;;4.43;;
3867;SDS011;1949;48.152;11.528;2023-08-20T01:16:04;22.70;;;12.87;;
3867;SDS011;1949;48.152;11.528;2023-08-20T01:18:30;8.07;;;5.60;;
3867;SDS011;1949;48.152;11.528;2023-08-20T01:27:00;7.70;;;4.20;;
3867;SDS011;1949;48.152;11.528;2023-08-20T01:30:00;5.73;;;4.10;;
3867;SDS011;1949;48.152;11.528;2023-08-20T01:32:29;7.60;;;4.27;;
3867;SDS011;1949;48.152;11.528;2023-08-20T01:34:55;7.07;;;4.47;;
3867;SDS011;1949;48.152;11.528;2023-08-20T01:37:21;6.67;;;4.40;;
3867;SDS011;1949;48.152;11.528;2023-08-20T01:39:47;12.33;;;4.30;;
3867;SDS011;1949;48.152;11.528;2023-08-20T01:42:13;6.83;;;3.87;;
3867;SDS011;1949;48.152;11.528;2023-08-20T01:44:39;7.03;;;4.13;;
3867;SDS011;1949;48.152;11.528;2023-08-20T01:47:07;8.63;;;4.10;;
3867;SDS011;1949;48.152;11.528;2023-08-20T01:49:34;6.10;;;3.53;;
3867;SDS011;1949;48.152;11.528;2023-08-20T01:52:01;5.70;;;3.17;;
3867;SDS011;1949;48.152;11.528;2023-08-20T01:54:34;7.87;;;3.90;;
3867;SDS011;1949;48.152;11.528;2023-08-20T01:56:59;5.80;;;3.77;;
3867;SDS011;1949;48.152;11.528;2023-08-20T01:59:26;9.00;;;4.57;;
3867;SDS011;1949;48.152;11.528;2023-08-20T02:01:58;8.13;;;4.43;;
3867;SDS011;1949;48.152;11.528;2023-08-20T02:04:23;37.20;;;18.40;;
3867;SDS011;1949;48.152;11.528;2023-08-20T02:06:50;27.73;;;13.70;;
3867;SDS011;1949;48.152;11.528;2023-08-20T02:09:16;21.03;;;10.93;;
3867;SDS011;1949;48.152;11.528;2023-08-20T02:11:47;24.53;;;11.70;;
3867;SDS011;1949;48.152;11.528;2023-08-20T02:14:15;11.97;;;6.80;;
3867;SDS011;1949;48.152;11.528;2023-08-20T02:16:46;17.17;;;10.27;;
3867;SDS011;1949;48.152;11.528;2023-08-20T02:21:42;14.63;;;5.27;;
3867;SDS011;1949;48.152;11.528;2023-08-20T02:24:08;10.43;;;4.50;;
3867;SDS011;1949;48.152;11.528;2023-08-20T02:26:35;23.90;;;14.20;;
3867;SDS011;1949;48.152;11.528;2023-08-20T02:29:02;39.73;;;20.20;;
3867;SDS011;1949;48.152;11.528;2023-08-20T02:31:28;31.10;;;16.83;;
3867;SDS011;1949;48.152;11.528;2023-08-20T02:33:54;28.00;;;13.27;;
3867;SDS011;1949;48.152;11.528;2023-08-20T02:36:24;18.00;;;6.40;;
3867;SDS011;1949;48.152;11.528;2023-08-20T02:38:51;8.80;;;5.40;;
3867;SDS011;1949;48.152;11.528;2023-08-20T02:41:18;8.53;;;4.47;;
3867;SDS011;1949;48.152;11.528;2023-08-20T02:43:44;18.37;;;4.60;;
3867;SDS011;1949;48.152;11.528;2023-08-20T02:46:16;10.77;;;6.53;;
3867;SDS011;1949;48.152;11.528;2023-08-20T02:48:42;7.80;;;4.30;;
3867;SDS011;1949;48.152;11.528;2023-08-20T02:51:08;11.80;;;4.30;;
3867;SDS011;1949;48.152;11.528;2023-08-20T02:53:37;5.93;;;3.93;;
3867;SDS011;1949;48.152;11.528;2023-08-20T02:56:06;7.70;;;4.73;;
3867;SDS011;1949;48.152;11.528;2023-08-20T02:58:32;7.63;;;4.30;;
3867;SDS011;1949;48.152;11.528;2023-08-20T03:00:58;7.07;;;3.37;;
3867;SDS011;1949;48.152;11.528;2023-08-20T03:03:23;12.13;;;4.27;;
3867;SDS011;1949;48.152;11.528;2023-08-20T03:05:49;4.40;;;3.43;;
3867;SDS011;1949;48.152;11.528;2023-08-20T03:08:15;7.47;;;4.90;;
3867;SDS011;1949;48.152;11.528;2023-08-20T03:10:48;11.23;;;3.60;;
3867;SDS011;1949;48.152;11.528;2023-08-20T03:13:13;6.37;;;3.60;;
3867;SDS011;1949;48.152;11.528;2023-08-20T03:15:43;6.47;;;3.67;;
3867;SDS011;1949;48.152;11.528;2023-08-20T03:18:12;7.20;;;3.70;;
3867;SDS011;1949;48.152;11.528;2023-08-20T03:20:39;11.83;;;4.60;;
3867;SDS011;1949;48.152;11.528;2023-08-20T03:23:06;7.00;;;4.07;;
3867;SDS011;1949;48.152;11.528;2023-08-20T03:25:32;9.10;;;5.20;;
3867;SDS011;1949;48.152;11.528;2023-08-20T03:27:58;12.40;;;4.97;;
3867;SDS011;1949;48.152;11.528;2023-08-20T03:30:24;13.53;;;7.27;;
3867;SDS011;1949;48.152;11.528;2023-08-20T03:32:49;12.93;;;7.23;;
3867;SDS011;1949;48.152;11.528;2023-08-20T03:35:15;11.83;;;6.77;;
3867;SDS011;1949;48.152;11.528;2023-08-20T03:37:41;18.57;;;8.53;;
3867;SDS011;1949;48.152;11.528;2023-08-20T03:40:07;15.63;;;7.57;;
3867;SDS011;1949;48.152;11.528;2023-08-20T03:42:33;12.20;;;8.70;;
3867;SDS011;1949;48.152;11.528;2023-08-20T03:44:59;12.37;;;6.27;;
3867;SDS011;1949;48.152;11.528;2023-08-20T03:47:25;14.87;;;8.60;;
3867;SDS011;1949;48.152;11.528;2023-08-20T03:49:51;16.77;;;10.60;;
3867;SDS011;1949;48.152;11.528;2023-08-20T03:52:20;16.23;;;8.10;;
3867;SDS011;1949;48.152;11.528;2023-08-20T03:54:46;9.33;;;4.50;;
3867;SDS011;1949;48.152;11.528;2023-08-20T03:57:13;5.50;;;3.53;;
3867;SDS011;1949;48.152;11.528;2023-08-20T03:59:40;4.50;;;3.40;;
3867;SDS011;1949;48.152;11.528;2023-08-20T04:02:14;6.37;;;4.10;;
3867;SDS011;1949;48.152;11.528;2023-08-20T04:04:41;9.23;;;4.90;;
3867;SDS011;1949;48.152;11.528;2023-08-20T04:07:08;4.20;;;2.90;;
3867;SDS011;1949;48.152;11.528;2023-08-20T04:09:35;13.43;;;3.50;;
3867;SDS011;1949;48.152;11.528;2023-08-20T04:12:02;8.23;;;3.80;;
3867;SDS011;1949;48.152;11.528;2023-08-20T04:14:28;8.70;;;4.07;;
3867;SDS011;1949;48.152;11.528;2023-08-20T04:16:54;7.60;;;3.50;;
3867;SDS011;1949;48.152;11.528;2023-08-20T04:19:22;11.10;;;5.83;;
3867;SDS011;1949;48.152;11.528;2023-08-20T04:21:49;17.73;;;10.10;;
3867;SDS011;1949;48.152;11.528;2023-08-20T04:24:15;14.97;;;7.70;;
3867;SDS011;1949;48.152;11.528;2023-08-20T04:26:40;18.07;;;9.70;;
3867;SDS011;1949;48.152;11.528;2023-08-20T04:29:07;22.90;;;9.83;;
3867;SDS011;1949;48.152;11.528;2023-08-20T04:31:33;22.63;;;11.17;;
3867;SDS011;1949;48.152;11.528;2023-08-20T04:33:59;19.10;;;12.70;;
3867;SDS011;1949;48.152;11.528;2023-08-20T04:36:28;18.20;;;9.70;;
3867;SDS011;1949;48.152;11.528;2023-08-20T04:38:54;22.10;;;9.10;;
3867;SDS011;1949;48.152;11.528;2023-08-20T04:43:53;14.23;;;7.33;;
3867;SDS011;1949;48.152;11.528;2023-08-20T04:46:20;11.33;;;6.43;;
3867;SDS011;1949;48.152;11.528;2023-08-20T04:48:46;15.07;;;8.30;;
3867;SDS011;1949;48.152;11.528;2023-08-20T04:51:13;18.13;;;8.50;;
3867;SDS011;1949;48.152;11.528;2023-08-20T04:53:40;19.47;;;12.60;;
3867;SDS011;1949;48.152;11.528;2023-08-20T04:56:06;22.93;;;11.17;;
3867;SDS011;1949;48.152;11.528;2023-08-20T04:58:33;30.00;;;14.20;;
3867;SDS011;1949;48.152;11.528;2023-08-20T05:01:01;21.60;;;11.00;;
3867;SDS011;1949;48.152;11.528;2023-08-20T05:03:26;11.87;;;7.40;;
3867;SDS011;1949;48.152;11.528;2023-08-20T05:06:01;12.30;;;7.00;;
3867;SDS011;1949;48.152;11.528;2023-08-20T05:08:28;15.37;;;6.70;;
3867;SDS011;1949;48.152;11.528;2023-08-20T05:10:59;7.80;;;5.07;;
3867;SDS011;1949;48.152;11.528;2023-08-20T05:13:26;7.53;;;5.27;;
3867;SDS011;1949;48.152;11.528;2023-08-20T05:15:53;7.17;;;4.83;;
3867;SDS011;1949;48.152;11.528;2023-08-20T05:18:19;11.53;;;5.73;;
3867;SDS011;1949;48.152;11.528;2023-08-20T05:20:46;20.53;;;10.17;;
3867;SDS011;1949;48.152;11.528;2023-08-20T05:23:12;11.43;;;7.03;;
3867;SDS011;1949;48.152;11.528;2023-08-20T05:25:37;15.57;;;8.80;;
3867;SDS011;1949;48.152;11.528;2023-08-20T05:28:05;17.83;;;11.00;;
3867;SDS011;1949;48.152;11.528;2023-08-20T05:30:31;17.40;;;8.23;;
3867;SDS011;1949;48.152;11.528;2023-08-20T05:32:56;13.73;;;5.17;;
3867;SDS011;1949;48.152;11.528;2023-08-20T05:35:32;23.20;;;14.10;;
3867;SDS011;1949;48.152;11.528;2023-08-20T05:37:58;19.30;;;10.57;;
3867;SDS011;1949;48.152;11.528;2023-08-20T05:40:26;22.43;;;11.80;;
3867;SDS011;1949;48.152;11.528;2023-08-20T05:45:22;21.93;;;10.30;;
3867;SDS011;1949;48.152;11.528;2023-08-20T05:47:48;11.03;;;6.10;;
3867;SDS011;1949;48.152;11.528;2023-08-20T05:50:23;15.30;;;9.17;;
3867;SDS011;1949;48.152;11.528;2023-08-20T05:52:51;15.07;;;9.17;;
3867;SDS011;1949;48.152;11.528;2023-08-20T05:55:21;16.93;;;6.00;;
3867;SDS011;1949;48.152;11.528;2023-08-20T06:00:36;16.03;;;8.20;;
3867;SDS011;1949;48.152;11.528;2023-08-20T06:03:02;20.00;;;9.10;;
3867;SDS011;1949;48.152;11.528;2023-08-20T06:05:29;8.70;;;5.67;;
3867;SDS011;1949;48.152;11.528;2023-08-20T06:08:01;9.00;;;4.10;;
3867;SDS011;1949;48.152;11.528;2023-08-20T06:19:09;20.67;;;8.90;;
3867;SDS011;1949;48.152;11.528;2023-08-20T06:21:39;12.30;;;8.50;;
3867;SDS011;1949;48.152;11.528;2023-08-20T06:24:06;21.90;;;10.07;;
3867;SDS011;1949;48.152;11.528;2023-08-20T06:26:36;12.00;;;6.93;;
3867;SDS011;1949;48.152;11.528;2023-08-20T06:29:03;16.80;;;7.57;;
3867;SDS011;1949;48.152;11.528;2023-08-20T06:31:46;33.07;;;16.70;;
3867;SDS011;1949;48.152;11.528;2023-08-20T06:34:13;15.07;;;9.00;;
3867;SDS011;1949;48.152;11.528;2023-08-20T06:36:40;20.60;;;9.17;;
3867;SDS011;1949;48.152;11.528;2023-08-20T06:41:36;27.60;;;14.40;;
3867;SDS011;1949;48.152;11.528;2023-08-20T06:46:42;19.70;;;9.60;;
3867;SDS011;1949;48.152;11.528;2023-08-20T06:49:08;7.27;;;4.77;;
3867;SDS011;1949;48.152;11.528;2023-08-20T06:54:10;11.13;;;5.93;;
3867;SDS011;1949;48.152;11.528;2023-08-20T06:56:36;11.23;;;4.60;;
3867;SDS011;1949;48.152;11.528;2023-08-20T06:59:06;19.30;;;9.80;;
3867;SDS011;1949;48.152;11.528;2023-08-20T07:01:34;11.97;;;6.40;;
3867;SDS011;1949;48.152;11.528;2023-08-20T07:03:59;23.00;;;11.60;;
3867;SDS011;1949;48.152;11.528;2023-08-20T07:06:27;12.17;;;5.40;;
3867;SDS011;1949;48.152;11.528;2023-08-20T07:08:54;11.90;;;5.80;;
3867;SDS011;1949;48.152;11.528;2023-08-20T07:11:22;8.20;;;5.60;;
3867;SDS011;1949;48.152;11.528;2023-08-20T07:16:27;17.20;;;7.80;;
3867;SDS011;1949;48.152;11.528;2023-08-20T07:18:57;7.93;;;4.90;;
3867;SDS011;1949;48.152;11.528;2023-08-20T07:21:26;15.50;;;8.87;;
3867;SDS011;1949;48.152;11.528;2023-08-20T07:23:58;34.60;;;13.60;;
3867;SDS011;1949;48.152;11.528;2023-08-20T07:26:23;45.63;;;14.40;;
3867;SDS011;1949;48.152;11.528;2023-08-20T07:28:49;11.30;;;5.63;;
3867;SDS011;1949;48.152;11.528;2023-08-20T07:31:25;14.50;;;7.47;;
3867;SDS011;1949;48.152;11.528;2023-08-20T07:33:52;17.73;;;8.83;;
3867;SDS011;1949;48.152;11.528;2023-08-20T07:38:59;16.73;;;7.97;;
3867;SDS011;1949;48.152;11.528;2023-08-20T07:41:25;11.47;;;6.10;;
3867;SDS011;1949;48.152;11.528;2023-08-20T07:46:27;11.80;;;5.50;;
3867;SDS011;1949;48.152;11.528;2023-08-20T07:49:05;15.73;;;5.73;;
3867;SDS011;1949;48.152;11.528;2023-08-20T07:54:00;23.30;;;8.17;;
3867;SDS011;1949;48.152;11.528;2023-08-20T07:56:33;21.80;;;9.30;;
3867;SDS011;1949;48.152;11.528;2023-08-20T07:58:59;12.10;;;6.20;;
3867;SDS011;1949;48.152;11.528;2023-08-20T08:01:25;12.83;;;7.50;;
3867;SDS011;1949;48.152;11.528;2023-08-20T08:03:57;15.37;;;8.70;;
3867;SDS011;1949;48.152;11.528;2023-08-20T08:06:23;23.47;;;12.30;;
3867;SDS011;1949;48.152;11.528;2023-08-20T08:08:49;26.03;;;11.43;;
3867;SDS011;1949;48.152;11.528;2023-08-20T08:11:17;26.43;;;13.73;;
3867;SDS011;1949;48.152;11.528;2023-08-20T08:13:42;26.43;;;12.70;;
3867;SDS011;1949;48.152;11.528;2023-08-20T08:16:08;33.87;;;16.33;;
3867;SDS011;1949;48.152;11.528;2023-08-20T08:18:36;13.77;;;8.07;;
3867;SDS011;1949;48.152;11.528;2023-08-20T08:21:02;24.40;;;15.13;;
3867;SDS011;1949;48.152;11.528;2023-08-20T08:23:30;20.80;;;7.30;;
3867;SDS011;1949;48.152;11.528;2023-08-20T08:25:57;15.17;;;6.90;;
3867;SDS011;1949;48.152;11.528;2023-08-20T08:28:25;15.30;;;8.70;;
3867;SDS011;1949;48.152;11.528;2023-08-20T08:30:51;18.70;;;10.00;;
3867;SDS011;1949;48.152;11.528;2023-08-20T08:33:17;12.17;;;7.30;;
3867;SDS011;1949;48.152;11.528;2023-08-20T08:35:45;10.10;;;6.07;;
3867;SDS011;1949;48.152;11.528;2023-08-20T08:38:12;16.63;;;8.90;;
3867;SDS011;1949;48.152;11.528;2023-08-20T08:40:40;19.17;;;6.10;;
3867;SDS011;1949;48.152;11.528;2023-08-20T08:43:10;11.90;;;7.10;;
3867;SDS011;1949;48.152;11.528;2023-08-20T08:45:41;11.70;;;5.33;;
3867;SDS011;1949;48.152;11.528;2023-08-20T08:48:10;10.00;;;5.10;;
3867;SDS011;1949;48.152;11.528;2023-08-20T08:50:36;11.57;;;5.50;;
3867;SDS011;1949;48.152;11.528;2023-08-20T08:53:09;16.43;;;9.63;;
3867;SDS011;1949;48.152;11.528;2023-08-20T08:55:39;10.20;;;6.03;;
3867;SDS011;1949;48.152;11.528;2023-08-20T08:58:06;14.80;;;5.50;;
3867;SDS011;1949;48.152;11.528;2023-08-20T09:00:34;27.47;;;8.83;;
3867;SDS011;1949;48.152;11.528;2023-08-20T09:03:00;15.40;;;7.13;;
3867;SDS011;1949;48.152;11.528;2023-08-20T09:05:27;9.03;;;4.83;;
3867;SDS011;1949;48.152;11.528;2023-08-20T09:08:01;11.10;;;5.80;;
3867;SDS011;1949;48.152;11.528;2023-08-20T09:10:29;8.13;;;5.40;;
3867;SDS011;1949;48.152;11.528;2023-08-20T09:13:00;9.20;;;4.40;;
3867;SDS011;1949;48.152;11.528;2023-08-20T09:15:34;13.93;;;5.47;;
3867;SDS011;1949;48.152;11.528;2023-08-20T09:18:03;6.83;;;3.20;;
3867;SDS011;1949;48.152;11.528;2023-08-20T09:20:36;7.43;;;3.90;;
3867;SDS011;1949;48.152;11.528;2023-08-20T09:23:13;11.43;;;4.10;;
3867;SDS011;1949;48.152;11.528;2023-08-20T09:25:46;5.17;;;3.17;;
3867;SDS011;1949;48.152;11.528;2023-08-20T09:28:11;15.30;;;8.50;;
3867;SDS011;1949;48.152;11.528;2023-08-20T09:30:37;20.00;;;12.30;;
3867;SDS011;1949;48.152;11.528;2023-08-20T09:33:12;13.90;;;7.43;;
3867;SDS011;1949;48.152;11.528;2023-08-20T09:35:51;20.40;;;11.60;;
3867;SDS011;1949;48.152;11.528;2023-08-20T09:38:24;7.63;;;4.97;;
3867;SDS011;1949;48.152;11.528;2023-08-20T09:40:52;10.23;;;4.93;;
3867;SDS011;1949;48.152;11.528;2023-08-20T09:43:24;16.73;;;9.40;;
3867;SDS011;1949;48.152;11.528;2023-08-20T09:45:55;11.40;;;5.30;;
3867;SDS011;1949;48.152;11.528;2023-08-20T09:48:24;11.20;;;5.20;;
3867;SDS011;1949;48.152;11.528;2023-08-20T09:50:52;4.60;;;3.53;;
3867;SDS011;1949;48.152;11.528;2023-08-20T09:56:13;11.33;;;4.20;;
3867;SDS011;1949;48.152;11.528;2023-08-20T10:01:21;12.40;;;5.80;;
3867;SDS011;1949;48.152;11.528;2023-08-20T10:03:50;7.23;;;5.00;;
3867;SDS011;1949;48.152;11.528;2023-08-20T10:06:18;9.17;;;5.30;;
3867;SDS011;1949;48.152;11.528;2023-08-20T10:08:48;26.53;;;11.47;;
3867;SDS011;1949;48.152;11.528;2023-08-20T10:13:47;22.03;;;13.50;;
3867;SDS011;1949;48.152;11.528;2023-08-20T10:16:17;11.47;;;4.93;;
3867;SDS011;1949;48.152;11.528;2023-08-20T10:18:48;9.53;;;6.03;;
3867;SDS011;1949;48.152;11.528;2023-08-20T10:21:23;15.47;;;7.73;;
3867;SDS011;1949;48.152;11.528;2023-08-20T10:23:50;31.90;;;16.50;;
3867;SDS011;1949;48.152;11.528;2023-08-20T10:26:18;13.40;;;6.90;;
3867;SDS011;1949;48.152;11.528;2023-08-20T10:28:47;20.53;;;11.10;;
3867;SDS011;1949;48.152;11.528;2023-08-20T10:31:15;16.27;;;9.60;;
3867;SDS011;1949;48.152;11.528;2023-08-20T10:33:54;36.43;;;20.93;;
3867;SDS011;1949;48.152;11.528;2023-08-20T10:36:31;21.90;;;14.27;;
3867;SDS011;1949;48.152;11.528;2023-08-20T10:39:08;24.47;;;12.83;;
3867;SDS011;1949;48.152;11.528;2023-08-20T10:41:49;15.30;;;10.10;;
3867;SDS011;1949;48.152;11.528;2023-08-20T10:47:43;15.77;;;9.70;;
3867;SDS011;1949;48.152;11.528;2023-08-20T10:50:19;18.97;;;11.63;;
3867;SDS011;1949;48.152;11.528;2023-08-20T10:52:55;15.07;;;9.90;;
3867;SDS011;1949;48.152;11.528;2023-08-20T10:55:22;46.10;;;25.30;;
3867;SDS011;1949;48.152;11.528;2023-08-20T10:57:54;17.37;;;8.87;;
3867;SDS011;1949;48.152;11.528;2023-08-20T11:00:27;23.27;;;13.90;;
3867;SDS011;1949;48.152;11.528;2023-08-20T11:02:53;49.70;;;27.37;;
3867;SDS011;1949;48.152;11.528;2023-08-20T11:05:20;20.87;;;14.33;;
3867;SDS011;1949;48.152;11.528;2023-08-20T11:07:47;28.10;;;12.20;;
3867;SDS011;1949;48.152;11.528;2023-08-20T11:10:14;19.30;;;10.47;;
3867;SDS011;1949;48.152;11.528;2023-08-20T11:12:40;15.13;;;9.83;;
3867;SDS011;1949;48.152;11.528;2023-08-20T11:15:10;24.37;;;13.00;;
3867;SDS011;1949;48.152;11.528;2023-08-20T11:17:45;21.00;;;14.43;;
3867;SDS011;1949;48.152;11.528;2023-08-20T11:20:13;18.50;;;10.77;;
3867;SDS011;1949;48.152;11.528;2023-08-20T11:22:40;12.37;;;9.03;;
3867;SDS011;1949;48.152;11.528;2023-08-20T11:25:06;13.00;;;5.93;;
3867;SDS011;1949;48.152;11.528;2023-08-20T11:27:41;16.60;;;8.30;;
3867;SDS011;1949;48.152;11.528;2023-08-20T11:30:08;14.33;;;6.37;;
3867;SDS011;1949;48.152;11.528;2023-08-20T11:32:35;16.23;;;8.47;;
3867;SDS011;1949;48.152;11.528;2023-08-20T11:35:01;16.10;;;11.00;;
3867;SDS011;1949;48.152;11.528;2023-08-20T11:37:27;10.30;;;6.10;;
3867;SDS011;1949;48.152;11.528;2023-08-20T11:39:53;20.70;;;9.80;;
3867;SDS011;1949;48.152;11.528;2023-08-20T11:42:19;13.10;;;7.63;;
3867;SDS011;1949;48.152;11.528;2023-08-20T11:44:45;8.87;;;5.70;;
3867;SDS011;1949;48.152;11.528;2023-08-20T11:47:18;8.60;;;6.50;;
3867;SDS011;1949;48.152;11.528;2023-08-20T11:49:44;11.73;;;6.67;;
3867;SDS011;1949;48.152;11.528;2023-08-20T11:52:10;12.40;;;6.20;;
3867;SDS011;1949;48.152;11.528;2023-08-20T11:54:38;14.53;;;8.47;;
3867;SDS011;1949;48.152;11.528;2023-08-20T11:57:04;14.50;;;7.80;;
3867;SDS011;1949;48.152;11.528;2023-08-20T11:59:31;14.47;;;9.43;;
3867;SDS011;1949;48.152;11.528;2023-08-20T12:01:58;7.10;;;4.87;;
3867;SDS011;1949;48.152;11.528;2023-08-20T12:04:29;31.33;;;9.67;;
3867;SDS011;1949;48.152;11.528;2023-08-20T12:07:14;12.50;;;8.77;;
3867;SDS011;1949;48.152;11.528;2023-08-20T12:09:40;13.80;;;7.50;;
3867;SDS011;1949;48.152;11.528;2023-08-20T12:12:07;15.23;;;8.20;;
3867;SDS011;1949;48.152;11.528;2023-08-20T12:14:33;10.37;;;6.60;;
3867;SDS011;1949;48.152;11.528;2023-08-20T12:16:59;11.37;;;6.70;;
3867;SDS011;1949;48.152;11.528;2023-08-20T12:19:25;14.47;;;8.03;;
3867;SDS011;1949;48.152;11.528;2023-08-20T12:21:51;9.00;;;4.13;;
3867;SDS011;1949;48.152;11.528;2023-08-20T12:24:17;10.00;;;6.53;;
3867;SDS011;1949;48.152;11.528;2023-08-20T12:26:46;13.97;;;7.20;;
3867;SDS011;1949;48.152;11.528;2023-08-20T12:29:12;8.83;;;5.90;;
3867;SDS011;1949;48.152;11.528;2023-08-20T12:31:38;10.80;;;5.43;;
3867;SDS011;1949;48.152;11.528;2023-08-20T12:34:04;3.80;;;3.43;;
3867;SDS011;1949;48.152;11.528;2023-08-20T12:36:30;8.87;;;6.10;;
3867;SDS011;1949;48.152;11.528;2023-08-20T12:38:56;7.00;;;5.10;;
3867;SDS011;1949;48.152;11.528;2023-08-20T12:41:22;8.93;;;5.10;;
3867;SDS011;1949;48.152;11.528;2023-08-20T12:43:47;7.90;;;4.87;;
3867;SDS011;1949;48.152;11.528;2023-08-20T12:46:13;7.53;;;4.27;;
3867;SDS011;1949;48.152;11.528;2023-08-20T12:48:39;11.00;;;5.20;;
3867;SDS011;1949;48.152;11.528;2023-08-20T12:51:05;5.10;;;2.40;;
3867;SDS011;1949;48.152;11.528;2023-08-20T12:53:31;8.50;;;5.17;;
3867;SDS011;1949;48.152;11.528;2023-08-20T12:55:57;6.53;;;4.43;;
3867;SDS011;1949;48.152;11.528;2023-08-20T12:58:23;9.53;;;4.33;;
3867;SDS011;1949;48.152;11.528;2023-08-20T13:00:49;6.13;;;4.40;;
3867;SDS011;1949;48.152;11.528;2023-08-20T13:03:16;4.37;;;3.70;;
3867;SDS011;1949;48.152;11.528;2023-08-20T13:05:43;5.37;;;4.03;;
3867;SDS011;1949;48.152;11.528;2023-08-20T13:08:09;4.67;;;3.80;;
3867;SDS011;1949;48.152;11.528;2023-08-20T13:10:37;8.87;;;4.60;;
3867;SDS011;1949;48.152;11.528;2023-08-20T13:13:05;5.67;;;4.13;;
3867;SDS011;1949;48.152;11.528;2023-08-20T13:15:35;5.80;;;4.10;;
3867;SDS011;1949;48.152;11.528;2023-08-20T13:18:02;6.87;;;4.77;;
3867;SDS011;1949;48.152;11.528;2023-08-20T13:20:29;4.87;;;3.73;;
3867;SDS011;1949;48.152;11.528;2023-08-20T13:22:54;4.87;;;3.60;;
3867;SDS011;1949;48.152;11.528;2023-08-20T13:25:20;6.10;;;4.03;;
3867;SDS011;1949;48.152;11.528;2023-08-20T13:27:46;6.40;;;4.20;;
3867;SDS011;1949;48.152;11.528;2023-08-20T13:30:12;5.50;;;4.07;;
3867;SDS011;1949;48.152;11.528;2023-08-20T13:32:39;9.93;;;4.33;;
3867;SDS011;1949;48.152;11.528;2023-08-20T13:35:06;54.47;;;29.40;;
3867;SDS011;1949;48.152;11.528;2023-08-20T13:37:35;158.00;;;95.93;;
3867;SDS011;1949;48.152;11.528;2023-08-20T13:40:01;156.57;;;99.80;;
3867;SDS011;1949;48.152;11.528;2023-08-20T13:42:29;239.70;;;146.70;;
3867;SDS011;1949;48.152;11.528;2023-08-20T13:44:54;210.63;;;132.03;;
3867;SDS011;1949;48.152;11.528;2023-08-20T13:47:20;220.10;;;138.43;;
3867;SDS011;1949;48.152;11.528;2023-08-20T13:49:46;289.40;;;173.17;;
3867;SDS011;1949;48.152;11.528;2023-08-20T13:52:11;243.70;;;156.00;;
3867;SDS011;1949;48.152;11.528;2023-08-20T13:54:37;271.33;;;180.10;;
3867;SDS011;1949;48.152;11.528;2023-08-20T13:57:03;260.67;;;168.27;;
3867;SDS011;1949;48.152;11.528;2023-08-20T13:59:29;181.90;;;118.30;;
3867;SDS011;1949;48.152;11.528;2023-08-20T14:01:55;184.77;;;119.07;;
3867;SDS011;1949;48.152;11.528;2023-08-20T14:04:21;295.77;;;192.73;;
3867;SDS011;1949;48.152;11.528;2023-08-20T14:06:47;184.43;;;120.50;;
3867;SDS011;1949;48.152;11.528;2023-08-20T14:09:13;146.23;;;101.00;;
3867;SDS011;1949;48.152;11.528;2023-08-20T14:11:39;115.33;;;77.40;;
3867;SDS011;1949;48.152;11.528;2023-08-20T14:14:06;99.30;;;63.13;;
3867;SDS011;1949;48.152;11.528;2023-08-20T14:16:31;51.83;;;34.17;;
3867;SDS011;1949;48.152;11.528;2023-08-20T14:18:57;70.80;;;46.70;;
3867;SDS011;1949;48.152;11.528;2023-08-20T14:21:23;66.77;;;39.30;;
3867;SDS011;1949;48.152;11.528;2023-08-20T14:23:50;49.30;;;33.50;;
3867;SDS011;1949;48.152;11.528;2023-08-20T14:26:15;45.77;;;30.50;;
3867;SDS011;1949;48.152;11.528;2023-08-20T14:28:41;39.10;;;27.60;;
3867;SDS011;1949;48.152;11.528;2023-08-20T14:31:09;38.10;;;26.07;;
3867;SDS011;1949;48.152;11.528;2023-08-20T14:33:35;36.00;;;24.00;;
3867;SDS011;1949;48.152;11.528;2023-08-20T14:36:01;34.87;;;24.27;;
3867;SDS011;1949;48.152;11.528;2023-08-20T14:38:28;30.70;;;20.70;;
3867;SDS011;1949;48.152;11.528;2023-08-20T14:40:58;24.33;;;17.43;;
3867;SDS011;1949;48.152;11.528;2023-08-20T14:43:25;23.83;;;17.20;;
3867;SDS011;1949;48.152;11.528;2023-08-20T14:45:51;24.57;;;16.47;;
3867;SDS011;1949;48.152;11.528;2023-08-20T14:48:16;21.40;;;15.23;;
3867;SDS011;1949;48.152;11.528;2023-08-20T14:50:42;22.63;;;14.03;;
3867;SDS011;1949;48.152;11.528;2023-08-20T14:53:08;19.10;;;13.77;;
3867;SDS011;1949;48.152;11.528;2023-08-20T14:55:34;18.63;;;11.90;;
3867;SDS011;1949;48.152;11.528;2023-08-20T14:58:00;13.83;;;10.40;;
3867;SDS011;1949;48.152;11.528;2023-08-20T15:00:26;16.20;;;11.33;;
3867;SDS011;1949;48.152;11.528;2023-08-20T15:02:51;12.87;;;9.93;;
3867;SDS011;1949;48.152;11.528;2023-08-20T15:05:17;15.80;;;10.47;;
3867;SDS011;1949;48.152;11.528;2023-08-20T15:07:43;10.90;;;8.83;;
3867;SDS011;1949;48.152;11.528;2023-08-20T15:10:10;12.70;;;6.97;;
3867;SDS011;1949;48.152;11.528;2023-08-20T15:12:36;13.77;;;10.20;;
3867;SDS011;1949;48.152;11.528;2023-08-20T15:15:05;10.70;;;7.80;;
3867;SDS011;1949;48.152;11.528;2023-08-20T15:17:33;10.33;;;8.83;;
3867;SDS011;1949;48.152;11.528;2023-08-20T15:19:59;10.93;;;7.97;;
3867;SDS011;1949;48.152;11.528;2023-08-20T15:22:27;10.37;;;7.53;;
3867;SDS011;1949;48.152;11.528;2023-08-20T15:24:53;9.80;;;7.80;;
3867;SDS011;1949;48.152;11.528;2023-08-20T15:27:21;8.60;;;6.33;;
3867;SDS011;1949;48.152;11.528;2023-08-20T15:29:51;13.73;;;7.57;;
3867;SDS011;1949;48.152;11.528;2023-08-20T15:32:17;15.60;;;12.00;;
3867;SDS011;1949;48.152;11.528;2023-08-20T15:34:43;111.73;;;72.73;;
3867;SDS011;1949;48.152;11.528;2023-08-20T15:37:09;123.80;;;82.93;;
3867;SDS011;1949;48.152;11.528;2023-08-20T15:39:35;100.37;;;67.80;;
3867;SDS011;1949;48.152;11.528;2023-08-20T15:42:01;80.67;;;54.40;;
3867;SDS011;1949;48.152;11.528;2023-08-20T15:44:28;129.00;;;91.13;;
3867;SDS011;1949;48.152;11.528;2023-08-20T15:46:54;117.57;;;80.77;;
3867;SDS011;1949;48.152;11.528;2023-08-20T15:49:20;100.43;;;67.73;;
3867;SDS011;1949;48.152;11.528;2023-08-20T15:51:46;71.43;;;49.60;;